sensor_id;sensor_type;location;lat;lon;timestamp;P1;durP1;ratioP1;P2;durP2;ratioP2
16119;SDS011;12670;53.502;10.252;2022-09-29T00:01:53;11.30;;;6.50;;
16119;SDS011;12670;53.502;10.252;2022-09-29T00:04:56;12.20;;;6.73;;
16119;SDS011;12670;53.502;10.252;2022-09-29T00:08:00;11.60;;;6.33;;
16119;SDS011;12670;53.502;10.252;2022-09-29T00:11:05;11.90;;;6.73;;
16119;SDS011;12670;53.502;10.252;2022-09-29T00:14:09;11.07;;;6.37;;
16119;SDS011;12670;53.502;10.252;2022-09-29T00:17:11;9.40;;;6.33;;
16119;SDS011;12670;53.502;10.252;2022-09-29T00:20:14;9.97;;;6.20;;
16119;SDS011;12670;53.502;10.252;2022-09-29T00:23:18;9.60;;;6.43;;
16119;SDS011;12670;53.502;10.252;2022-09-29T00:26:21;8.57;;;6.00;;
16119;SDS011;12670;53.502;10.252;2022-09-29T00:29:25;9.33;;;6.20;;
16119;SDS011;12670;53.502;10.252;2022-09-29T00:32:28;10.20;;;6.07;;
16119;SDS011;12670;53.502;10.252;2022-09-29T00:35:30;11.10;;;6.53;;
16119;SDS011;12670;53.502;10.252;2022-09-29T00:38:34;15.73;;;6.50;;
16119;SDS011;12670;53.502;10.252;2022-09-29T00:41:38;10.87;;;7.00;;
16119;SDS011;12670;53.502;10.252;2022-09-29T00:44:54;9.50;;;6.07;;
16119;SDS011;12670;53.502;10.252;2022-09-29T00:48:05;12.23;;;6.50;;
16119;SDS011;12670;53.502;10.252;2022-09-29T00:51:13;10.07;;;6.47;;
16119;SDS011;12670;53.502;10.252;2022-09-29T00:54:18;8.07;;;5.87;;
16119;SDS011;12670;53.502;10.252;2022-09-29T00:57:22;8.90;;;6.17;;
16119;SDS011;12670;53.502;10.252;2022-09-29T01:00:30;12.30;;;6.63;;
16119;SDS011;12670;53.502;10.252;2022-09-29T01:03:34;11.97;;;6.37;;
16119;SDS011;12670;53.502;10.252;2022-09-29T01:06:39;12.47;;;6.60;;
16119;SDS011;12670;53.502;10.252;2022-09-29T01:09:46;9.70;;;6.20;;
16119;SDS011;12670;53.502;10.252;2022-09-29T01:12:51;10.30;;;5.97;;
16119;SDS011;12670;53.502;10.252;2022-09-29T01:15:54;9.60;;;6.37;;
16119;SDS011;12670;53.502;10.252;2022-09-29T01:18:56;12.80;;;6.43;;
16119;SDS011;12670;53.502;10.252;2022-09-29T01:22:03;11.87;;;6.87;;
16119;SDS011;12670;53.502;10.252;2022-09-29T01:25:21;9.60;;;6.33;;
16119;SDS011;12670;53.502;10.252;2022-09-29T01:29:00;9.83;;;6.70;;
16119;SDS011;12670;53.502;10.252;2022-09-29T01:32:21;11.37;;;6.93;;
16119;SDS011;12670;53.502;10.252;2022-09-29T01:35:35;13.77;;;7.00;;
16119;SDS011;12670;53.502;10.252;2022-09-29T01:38:51;10.73;;;6.43;;
16119;SDS011;12670;53.502;10.252;2022-09-29T01:42:01;11.73;;;6.87;;
16119;SDS011;12670;53.502;10.252;2022-09-29T01:45:11;11.77;;;7.27;;
16119;SDS011;12670;53.502;10.252;2022-09-29T01:48:21;10.93;;;6.80;;
16119;SDS011;12670;53.502;10.252;2022-09-29T01:51:28;12.43;;;6.83;;
16119;SDS011;12670;53.502;10.252;2022-09-29T01:54:48;10.00;;;6.57;;
16119;SDS011;12670;53.502;10.252;2022-09-29T01:57:54;10.50;;;6.50;;
16119;SDS011;12670;53.502;10.252;2022-09-29T02:01:01;9.97;;;6.43;;
16119;SDS011;12670;53.502;10.252;2022-09-29T02:04:12;9.60;;;6.43;;
16119;SDS011;12670;53.502;10.252;2022-09-29T02:07:19;10.33;;;6.33;;
16119;SDS011;12670;53.502;10.252;2022-09-29T02:10:26;9.43;;;6.60;;
16119;SDS011;12670;53.502;10.252;2022-09-29T02:13:33;15.90;;;7.20;;
16119;SDS011;12670;53.502;10.252;2022-09-29T02:16:40;11.57;;;6.97;;
16119;SDS011;12670;53.502;10.252;2022-09-29T02:19:48;9.80;;;6.17;;
16119;SDS011;12670;53.502;10.252;2022-09-29T02:22:53;10.23;;;6.33;;
16119;SDS011;12670;53.502;10.252;2022-09-29T02:25:56;11.80;;;6.83;;
16119;SDS011;12670;53.502;10.252;2022-09-29T02:29:01;10.80;;;6.80;;
16119;SDS011;12670;53.502;10.252;2022-09-29T02:32:05;11.23;;;6.67;;
16119;SDS011;12670;53.502;10.252;2022-09-29T02:35:11;8.80;;;6.13;;
16119;SDS011;12670;53.502;10.252;2022-09-29T02:38:17;12.77;;;6.60;;
16119;SDS011;12670;53.502;10.252;2022-09-29T02:41:32;10.00;;;6.67;;
16119;SDS011;12670;53.502;10.252;2022-09-29T02:44:48;10.93;;;6.73;;
16119;SDS011;12670;53.502;10.252;2022-09-29T02:51:30;16.97;;;6.90;;
16119;SDS011;12670;53.502;10.252;2022-09-29T02:54:41;10.07;;;6.10;;
16119;SDS011;12670;53.502;10.252;2022-09-29T02:57:54;10.67;;;6.27;;
16119;SDS011;12670;53.502;10.252;2022-09-29T03:01:00;10.37;;;6.43;;
16119;SDS011;12670;53.502;10.252;2022-09-29T03:04:04;9.33;;;6.23;;
16119;SDS011;12670;53.502;10.252;2022-09-29T03:07:09;14.50;;;6.80;;
16119;SDS011;12670;53.502;10.252;2022-09-29T03:10:12;11.40;;;6.23;;
16119;SDS011;12670;53.502;10.252;2022-09-29T03:13:16;9.40;;;6.33;;
16119;SDS011;12670;53.502;10.252;2022-09-29T03:16:18;12.17;;;6.67;;
16119;SDS011;12670;53.502;10.252;2022-09-29T03:19:21;13.13;;;6.57;;
16119;SDS011;12670;53.502;10.252;2022-09-29T03:22:25;11.60;;;6.53;;
16119;SDS011;12670;53.502;10.252;2022-09-29T03:25:27;9.43;;;6.27;;
16119;SDS011;12670;53.502;10.252;2022-09-29T03:28:30;12.13;;;6.80;;
16119;SDS011;12670;53.502;10.252;2022-09-29T03:31:33;9.10;;;5.97;;
16119;SDS011;12670;53.502;10.252;2022-09-29T03:34:35;11.63;;;6.83;;
16119;SDS011;12670;53.502;10.252;2022-09-29T03:37:39;11.43;;;6.60;;
16119;SDS011;12670;53.502;10.252;2022-09-29T03:40:42;12.77;;;6.77;;
16119;SDS011;12670;53.502;10.252;2022-09-29T03:43:44;12.70;;;6.57;;
16119;SDS011;12670;53.502;10.252;2022-09-29T03:46:47;11.97;;;6.67;;
16119;SDS011;12670;53.502;10.252;2022-09-29T03:49:49;11.70;;;6.97;;
16119;SDS011;12670;53.502;10.252;2022-09-29T03:52:53;12.67;;;6.90;;
16119;SDS011;12670;53.502;10.252;2022-09-29T03:55:56;12.60;;;6.83;;
16119;SDS011;12670;53.502;10.252;2022-09-29T03:58:58;13.60;;;7.03;;
16119;SDS011;12670;53.502;10.252;2022-09-29T04:02:01;12.33;;;6.33;;
16119;SDS011;12670;53.502;10.252;2022-09-29T04:05:04;12.70;;;6.53;;
16119;SDS011;12670;53.502;10.252;2022-09-29T04:08:08;8.60;;;6.40;;
16119;SDS011;12670;53.502;10.252;2022-09-29T04:11:11;10.60;;;6.70;;
16119;SDS011;12670;53.502;10.252;2022-09-29T04:14:13;11.83;;;7.00;;
16119;SDS011;12670;53.502;10.252;2022-09-29T04:17:16;11.63;;;6.70;;
16119;SDS011;12670;53.502;10.252;2022-09-29T04:20:18;11.70;;;7.10;;
16119;SDS011;12670;53.502;10.252;2022-09-29T04:23:23;12.20;;;7.17;;
16119;SDS011;12670;53.502;10.252;2022-09-29T04:26:25;13.00;;;6.80;;
16119;SDS011;12670;53.502;10.252;2022-09-29T04:29:28;10.20;;;6.37;;
16119;SDS011;12670;53.502;10.252;2022-09-29T04:32:30;13.37;;;5.97;;
16119;SDS011;12670;53.502;10.252;2022-09-29T04:35:33;15.77;;;6.57;;
16119;SDS011;12670;53.502;10.252;2022-09-29T04:38:38;12.37;;;7.30;;
16119;SDS011;12670;53.502;10.252;2022-09-29T04:41:41;15.97;;;7.00;;
16119;SDS011;12670;53.502;10.252;2022-09-29T04:44:43;13.60;;;7.10;;
16119;SDS011;12670;53.502;10.252;2022-09-29T04:47:46;10.03;;;6.50;;
16119;SDS011;12670;53.502;10.252;2022-09-29T04:50:49;16.90;;;7.40;;
16119;SDS011;12670;53.502;10.252;2022-09-29T04:53:54;14.50;;;7.70;;
16119;SDS011;12670;53.502;10.252;2022-09-29T04:56:56;12.57;;;7.00;;
16119;SDS011;12670;53.502;10.252;2022-09-29T04:59:59;14.53;;;7.47;;
16119;SDS011;12670;53.502;10.252;2022-09-29T05:03:02;13.73;;;7.70;;
16119;SDS011;12670;53.502;10.252;2022-09-29T05:06:04;13.20;;;7.17;;
16119;SDS011;12670;53.502;10.252;2022-09-29T05:09:08;12.10;;;7.50;;
16119;SDS011;12670;53.502;10.252;2022-09-29T05:12:11;13.70;;;7.73;;
16119;SDS011;12670;53.502;10.252;2022-09-29T05:15:14;13.93;;;7.30;;
16119;SDS011;12670;53.502;10.252;2022-09-29T05:18:20;12.90;;;7.37;;
16119;SDS011;12670;53.502;10.252;2022-09-29T05:21:22;14.50;;;7.47;;
16119;SDS011;12670;53.502;10.252;2022-09-29T05:24:30;12.37;;;7.90;;
16119;SDS011;12670;53.502;10.252;2022-09-29T05:27:33;12.83;;;7.20;;
16119;SDS011;12670;53.502;10.252;2022-09-29T05:30:36;13.13;;;7.60;;
16119;SDS011;12670;53.502;10.252;2022-09-29T05:33:38;10.73;;;7.33;;
16119;SDS011;12670;53.502;10.252;2022-09-29T05:36:42;14.93;;;7.97;;
16119;SDS011;12670;53.502;10.252;2022-09-29T05:39:46;11.30;;;7.70;;
16119;SDS011;12670;53.502;10.252;2022-09-29T05:42:48;12.53;;;7.30;;
16119;SDS011;12670;53.502;10.252;2022-09-29T05:45:51;14.07;;;8.47;;
16119;SDS011;12670;53.502;10.252;2022-09-29T05:48:53;15.70;;;7.93;;
16119;SDS011;12670;53.502;10.252;2022-09-29T05:51:57;15.83;;;8.13;;
16119;SDS011;12670;53.502;10.252;2022-09-29T05:55:02;13.40;;;8.13;;
16119;SDS011;12670;53.502;10.252;2022-09-29T05:58:05;13.47;;;8.23;;
16119;SDS011;12670;53.502;10.252;2022-09-29T06:01:09;14.00;;;8.53;;
16119;SDS011;12670;53.502;10.252;2022-09-29T06:04:13;17.03;;;8.73;;
16119;SDS011;12670;53.502;10.252;2022-09-29T06:07:17;15.57;;;9.20;;
16119;SDS011;12670;53.502;10.252;2022-09-29T06:10:21;17.03;;;9.50;;
16119;SDS011;12670;53.502;10.252;2022-09-29T06:13:23;18.30;;;10.20;;
16119;SDS011;12670;53.502;10.252;2022-09-29T06:16:27;18.00;;;9.93;;
16119;SDS011;12670;53.502;10.252;2022-09-29T06:19:31;15.67;;;9.63;;
16119;SDS011;12670;53.502;10.252;2022-09-29T06:22:33;17.17;;;10.13;;
16119;SDS011;12670;53.502;10.252;2022-09-29T06:25:37;18.13;;;10.57;;
16119;SDS011;12670;53.502;10.252;2022-09-29T06:28:40;18.10;;;10.03;;
16119;SDS011;12670;53.502;10.252;2022-09-29T06:31:42;22.57;;;11.33;;
16119;SDS011;12670;53.502;10.252;2022-09-29T06:34:45;18.17;;;11.27;;
16119;SDS011;12670;53.502;10.252;2022-09-29T06:38:05;20.80;;;11.03;;
16119;SDS011;12670;53.502;10.252;2022-09-29T06:41:09;20.97;;;11.77;;
16119;SDS011;12670;53.502;10.252;2022-09-29T06:44:12;18.07;;;10.93;;
16119;SDS011;12670;53.502;10.252;2022-09-29T06:47:14;21.80;;;11.47;;
16119;SDS011;12670;53.502;10.252;2022-09-29T06:50:17;19.13;;;11.73;;
16119;SDS011;12670;53.502;10.252;2022-09-29T06:53:19;19.40;;;11.93;;
16119;SDS011;12670;53.502;10.252;2022-09-29T06:56:38;19.83;;;11.93;;
16119;SDS011;12670;53.502;10.252;2022-09-29T06:59:41;22.10;;;12.63;;
16119;SDS011;12670;53.502;10.252;2022-09-29T07:02:47;20.03;;;12.63;;
16119;SDS011;12670;53.502;10.252;2022-09-29T07:05:49;23.73;;;13.20;;
16119;SDS011;12670;53.502;10.252;2022-09-29T07:09:12;19.60;;;12.23;;
16119;SDS011;12670;53.502;10.252;2022-09-29T07:12:18;21.90;;;12.50;;
16119;SDS011;12670;53.502;10.252;2022-09-29T07:15:21;20.73;;;12.33;;
16119;SDS011;12670;53.502;10.252;2022-09-29T07:18:31;23.07;;;11.87;;
16119;SDS011;12670;53.502;10.252;2022-09-29T07:21:35;18.43;;;12.53;;
16119;SDS011;12670;53.502;10.252;2022-09-29T07:24:38;19.60;;;12.20;;
16119;SDS011;12670;53.502;10.252;2022-09-29T07:27:41;20.70;;;12.47;;
16119;SDS011;12670;53.502;10.252;2022-09-29T07:30:44;20.00;;;12.03;;
16119;SDS011;12670;53.502;10.252;2022-09-29T07:33:47;23.83;;;13.57;;
16119;SDS011;12670;53.502;10.252;2022-09-29T07:36:51;22.60;;;13.40;;
16119;SDS011;12670;53.502;10.252;2022-09-29T07:39:53;22.83;;;13.13;;
16119;SDS011;12670;53.502;10.252;2022-09-29T07:42:57;20.60;;;13.00;;
16119;SDS011;12670;53.502;10.252;2022-09-29T07:46:01;21.90;;;13.03;;
16119;SDS011;12670;53.502;10.252;2022-09-29T07:49:04;24.43;;;13.27;;
16119;SDS011;12670;53.502;10.252;2022-09-29T07:52:06;21.60;;;12.73;;
16119;SDS011;12670;53.502;10.252;2022-09-29T07:55:09;20.10;;;12.53;;
16119;SDS011;12670;53.502;10.252;2022-09-29T07:58:13;23.73;;;13.23;;
16119;SDS011;12670;53.502;10.252;2022-09-29T08:01:16;21.57;;;13.50;;
16119;SDS011;12670;53.502;10.252;2022-09-29T08:04:20;25.80;;;13.67;;
16119;SDS011;12670;53.502;10.252;2022-09-29T08:07:23;22.50;;;13.07;;
16119;SDS011;12670;53.502;10.252;2022-09-29T08:10:25;22.17;;;13.60;;
16119;SDS011;12670;53.502;10.252;2022-09-29T08:13:30;19.63;;;12.60;;
16119;SDS011;12670;53.502;10.252;2022-09-29T08:16:33;21.40;;;12.37;;
16119;SDS011;12670;53.502;10.252;2022-09-29T08:19:36;24.43;;;13.40;;
16119;SDS011;12670;53.502;10.252;2022-09-29T08:22:38;21.20;;;13.47;;
16119;SDS011;12670;53.502;10.252;2022-09-29T08:25:41;23.43;;;13.03;;
16119;SDS011;12670;53.502;10.252;2022-09-29T08:28:58;22.93;;;12.53;;
16119;SDS011;12670;53.502;10.252;2022-09-29T08:32:08;19.53;;;12.20;;
16119;SDS011;12670;53.502;10.252;2022-09-29T08:35:11;19.63;;;12.90;;
16119;SDS011;12670;53.502;10.252;2022-09-29T08:38:13;20.57;;;13.00;;
16119;SDS011;12670;53.502;10.252;2022-09-29T08:41:20;22.27;;;12.80;;
16119;SDS011;12670;53.502;10.252;2022-09-29T08:44:36;21.03;;;13.57;;
16119;SDS011;12670;53.502;10.252;2022-09-29T08:47:42;20.93;;;12.87;;
16119;SDS011;12670;53.502;10.252;2022-09-29T08:50:49;20.20;;;12.70;;
16119;SDS011;12670;53.502;10.252;2022-09-29T08:53:58;22.80;;;12.40;;
16119;SDS011;12670;53.502;10.252;2022-09-29T08:57:11;19.03;;;12.23;;
16119;SDS011;12670;53.502;10.252;2022-09-29T09:00:19;21.80;;;13.00;;
16119;SDS011;12670;53.502;10.252;2022-09-29T09:03:30;18.87;;;11.53;;
16119;SDS011;12670;53.502;10.252;2022-09-29T09:07:00;15.90;;;10.03;;
16119;SDS011;12670;53.502;10.252;2022-09-29T09:10:13;20.63;;;11.57;;
16119;SDS011;12670;53.502;10.252;2022-09-29T09:13:32;18.33;;;11.17;;
16119;SDS011;12670;53.502;10.252;2022-09-29T09:16:53;17.63;;;11.17;;
16119;SDS011;12670;53.502;10.252;2022-09-29T09:20:09;19.70;;;10.93;;
16119;SDS011;12670;53.502;10.252;2022-09-29T09:23:20;17.00;;;11.03;;
16119;SDS011;12670;53.502;10.252;2022-09-29T09:26:26;15.00;;;9.93;;
16119;SDS011;12670;53.502;10.252;2022-09-29T09:29:39;17.57;;;10.60;;
16119;SDS011;12670;53.502;10.252;2022-09-29T09:32:46;16.70;;;10.90;;
16119;SDS011;12670;53.502;10.252;2022-09-29T09:35:57;15.30;;;9.93;;
16119;SDS011;12670;53.502;10.252;2022-09-29T09:39:04;14.03;;;9.83;;
16119;SDS011;12670;53.502;10.252;2022-09-29T09:42:14;13.73;;;9.70;;
16119;SDS011;12670;53.502;10.252;2022-09-29T09:45:23;14.50;;;9.67;;
16119;SDS011;12670;53.502;10.252;2022-09-29T09:48:33;13.63;;;9.13;;
16119;SDS011;12670;53.502;10.252;2022-09-29T09:51:41;14.13;;;8.47;;
16119;SDS011;12670;53.502;10.252;2022-09-29T09:54:51;14.67;;;9.10;;
16119;SDS011;12670;53.502;10.252;2022-09-29T10:01:28;16.93;;;9.83;;
16119;SDS011;12670;53.502;10.252;2022-09-29T10:04:32;15.20;;;9.73;;
16119;SDS011;12670;53.502;10.252;2022-09-29T10:07:34;15.93;;;9.70;;
16119;SDS011;12670;53.502;10.252;2022-09-29T10:10:37;14.90;;;9.13;;
16119;SDS011;12670;53.502;10.252;2022-09-29T10:13:59;12.87;;;8.63;;
16119;SDS011;12670;53.502;10.252;2022-09-29T10:17:05;13.43;;;8.73;;
16119;SDS011;12670;53.502;10.252;2022-09-29T10:20:20;13.73;;;9.03;;
16119;SDS011;12670;53.502;10.252;2022-09-29T10:23:33;12.53;;;8.53;;
16119;SDS011;12670;53.502;10.252;2022-09-29T10:26:36;15.90;;;9.37;;
16119;SDS011;12670;53.502;10.252;2022-09-29T10:29:42;13.20;;;8.93;;
16119;SDS011;12670;53.502;10.252;2022-09-29T10:32:49;14.87;;;8.70;;
16119;SDS011;12670;53.502;10.252;2022-09-29T10:36:04;16.13;;;10.23;;
16119;SDS011;12670;53.502;10.252;2022-09-29T10:39:10;16.80;;;10.27;;
16119;SDS011;12670;53.502;10.252;2022-09-29T10:42:33;15.27;;;9.60;;
16119;SDS011;12670;53.502;10.252;2022-09-29T10:45:45;14.37;;;9.63;;
16119;SDS011;12670;53.502;10.252;2022-09-29T10:48:59;15.70;;;9.83;;
16119;SDS011;12670;53.502;10.252;2022-09-29T10:52:19;14.73;;;9.00;;
16119;SDS011;12670;53.502;10.252;2022-09-29T10:55:26;16.13;;;9.80;;
16119;SDS011;12670;53.502;10.252;2022-09-29T10:58:31;14.33;;;9.50;;
16119;SDS011;12670;53.502;10.252;2022-09-29T11:01:56;19.37;;;10.50;;
16119;SDS011;12670;53.502;10.252;2022-09-29T11:05:03;16.53;;;9.10;;
16119;SDS011;12670;53.502;10.252;2022-09-29T11:08:19;13.07;;;7.97;;
16119;SDS011;12670;53.502;10.252;2022-09-29T11:11:26;12.90;;;8.23;;
16119;SDS011;12670;53.502;10.252;2022-09-29T11:14:31;13.57;;;7.70;;
16119;SDS011;12670;53.502;10.252;2022-09-29T11:17:42;13.30;;;7.27;;
16119;SDS011;12670;53.502;10.252;2022-09-29T11:20:51;10.40;;;6.33;;
16119;SDS011;12670;53.502;10.252;2022-09-29T11:24:04;10.80;;;6.90;;
16119;SDS011;12670;53.502;10.252;2022-09-29T11:27:14;11.10;;;7.00;;
16119;SDS011;12670;53.502;10.252;2022-09-29T11:30:31;12.13;;;6.23;;
16119;SDS011;12670;53.502;10.252;2022-09-29T11:33:46;10.03;;;6.63;;
16119;SDS011;12670;53.502;10.252;2022-09-29T11:36:59;10.70;;;6.50;;
16119;SDS011;12670;53.502;10.252;2022-09-29T11:40:17;10.80;;;6.40;;
16119;SDS011;12670;53.502;10.252;2022-09-29T11:43:29;10.63;;;5.93;;
16119;SDS011;12670;53.502;10.252;2022-09-29T11:46:49;11.73;;;5.77;;
16119;SDS011;12670;53.502;10.252;2022-09-29T11:50:12;14.47;;;6.07;;
16119;SDS011;12670;53.502;10.252;2022-09-29T11:53:29;10.30;;;6.20;;
16119;SDS011;12670;53.502;10.252;2022-09-29T11:56:43;12.27;;;6.50;;
16119;SDS011;12670;53.502;10.252;2022-09-29T11:59:56;10.53;;;5.93;;
16119;SDS011;12670;53.502;10.252;2022-09-29T12:03:18;8.60;;;5.63;;
16119;SDS011;12670;53.502;10.252;2022-09-29T12:09:56;10.33;;;6.37;;
16119;SDS011;12670;53.502;10.252;2022-09-29T12:13:10;13.70;;;6.37;;
16119;SDS011;12670;53.502;10.252;2022-09-29T12:16:21;11.13;;;6.23;;
16119;SDS011;12670;53.502;10.252;2022-09-29T12:19:27;10.63;;;6.27;;
16119;SDS011;12670;53.502;10.252;2022-09-29T12:22:34;11.63;;;5.60;;
16119;SDS011;12670;53.502;10.252;2022-09-29T12:25:42;11.30;;;6.57;;
16119;SDS011;12670;53.502;10.252;2022-09-29T12:28:54;10.87;;;6.40;;
16119;SDS011;12670;53.502;10.252;2022-09-29T12:32:03;11.23;;;6.27;;
16119;SDS011;12670;53.502;10.252;2022-09-29T12:35:20;10.00;;;5.90;;
16119;SDS011;12670;53.502;10.252;2022-09-29T12:38:27;13.57;;;6.47;;
16119;SDS011;12670;53.502;10.252;2022-09-29T12:41:37;11.10;;;6.40;;
16119;SDS011;12670;53.502;10.252;2022-09-29T12:44:48;10.50;;;6.33;;
16119;SDS011;12670;53.502;10.252;2022-09-29T12:47:56;16.27;;;7.50;;
16119;SDS011;12670;53.502;10.252;2022-09-29T12:51:08;11.53;;;7.10;;
16119;SDS011;12670;53.502;10.252;2022-09-29T12:54:16;13.10;;;6.87;;
16119;SDS011;12670;53.502;10.252;2022-09-29T12:57:23;14.60;;;7.27;;
16119;SDS011;12670;53.502;10.252;2022-09-29T13:00:30;13.13;;;8.00;;
16119;SDS011;12670;53.502;10.252;2022-09-29T13:03:54;13.63;;;7.37;;
16119;SDS011;12670;53.502;10.252;2022-09-29T13:07:22;18.20;;;8.33;;
16119;SDS011;12670;53.502;10.252;2022-09-29T13:10:48;11.50;;;7.07;;
16119;SDS011;12670;53.502;10.252;2022-09-29T13:14:02;14.30;;;8.40;;
16119;SDS011;12670;53.502;10.252;2022-09-29T13:17:28;16.83;;;8.87;;
16119;SDS011;12670;53.502;10.252;2022-09-29T13:20:52;14.20;;;9.50;;
16119;SDS011;12670;53.502;10.252;2022-09-29T13:24:14;17.67;;;9.37;;
16119;SDS011;12670;53.502;10.252;2022-09-29T13:27:32;13.10;;;8.97;;
16119;SDS011;12670;53.502;10.252;2022-09-29T13:30:38;14.43;;;9.77;;
16119;SDS011;12670;53.502;10.252;2022-09-29T13:33:46;17.33;;;9.37;;
16119;SDS011;12670;53.502;10.252;2022-09-29T13:36:49;14.20;;;8.40;;
16119;SDS011;12670;53.502;10.252;2022-09-29T13:39:54;15.53;;;9.63;;
16119;SDS011;12670;53.502;10.252;2022-09-29T13:43:13;14.70;;;8.23;;
16119;SDS011;12670;53.502;10.252;2022-09-29T13:46:38;14.50;;;8.23;;
16119;SDS011;12670;53.502;10.252;2022-09-29T13:49:43;12.13;;;8.17;;
16119;SDS011;12670;53.502;10.252;2022-09-29T13:52:45;15.20;;;8.40;;
16119;SDS011;12670;53.502;10.252;2022-09-29T13:55:49;13.60;;;8.20;;
16119;SDS011;12670;53.502;10.252;2022-09-29T13:58:57;13.33;;;8.57;;
16119;SDS011;12670;53.502;10.252;2022-09-29T14:02:11;13.93;;;8.47;;
16119;SDS011;12670;53.502;10.252;2022-09-29T14:05:37;12.77;;;8.20;;
16119;SDS011;12670;53.502;10.252;2022-09-29T14:08:47;13.67;;;9.30;;
16119;SDS011;12670;53.502;10.252;2022-09-29T14:11:53;17.20;;;10.33;;
16119;SDS011;12670;53.502;10.252;2022-09-29T14:15:02;15.00;;;9.93;;
16119;SDS011;12670;53.502;10.252;2022-09-29T14:18:11;17.10;;;10.13;;
16119;SDS011;12670;53.502;10.252;2022-09-29T14:24:48;16.00;;;10.13;;
16119;SDS011;12670;53.502;10.252;2022-09-29T14:27:57;14.10;;;9.13;;
16119;SDS011;12670;53.502;10.252;2022-09-29T14:31:04;16.30;;;9.10;;
16119;SDS011;12670;53.502;10.252;2022-09-29T14:34:21;15.67;;;10.00;;
16119;SDS011;12670;53.502;10.252;2022-09-29T14:37:28;15.80;;;9.70;;
16119;SDS011;12670;53.502;10.252;2022-09-29T14:40:31;17.43;;;10.30;;
16119;SDS011;12670;53.502;10.252;2022-09-29T14:43:36;15.60;;;9.83;;
16119;SDS011;12670;53.502;10.252;2022-09-29T14:46:52;13.97;;;10.10;;
16119;SDS011;12670;53.502;10.252;2022-09-29T14:50:24;14.83;;;10.13;;
16119;SDS011;12670;53.502;10.252;2022-09-29T14:53:52;18.97;;;10.63;;
16119;SDS011;12670;53.502;10.252;2022-09-29T14:57:08;17.97;;;11.43;;
16119;SDS011;12670;53.502;10.252;2022-09-29T15:00:32;14.20;;;10.30;;
16119;SDS011;12670;53.502;10.252;2022-09-29T15:03:45;14.60;;;10.03;;
16119;SDS011;12670;53.502;10.252;2022-09-29T15:06:49;14.90;;;9.97;;
16119;SDS011;12670;53.502;10.252;2022-09-29T15:09:54;14.03;;;9.70;;
16119;SDS011;12670;53.502;10.252;2022-09-29T15:13:13;15.17;;;9.67;;
16119;SDS011;12670;53.502;10.252;2022-09-29T15:16:20;13.63;;;9.60;;
16119;SDS011;12670;53.502;10.252;2022-09-29T15:19:41;13.10;;;9.50;;
16119;SDS011;12670;53.502;10.252;2022-09-29T15:23:10;14.87;;;9.40;;
16119;SDS011;12670;53.502;10.252;2022-09-29T15:26:31;14.17;;;8.90;;
16119;SDS011;12670;53.502;10.252;2022-09-29T15:29:35;13.07;;;9.23;;
16119;SDS011;12670;53.502;10.252;2022-09-29T15:32:38;15.27;;;10.30;;
16119;SDS011;12670;53.502;10.252;2022-09-29T15:35:41;15.43;;;9.87;;
16119;SDS011;12670;53.502;10.252;2022-09-29T15:38:45;15.00;;;9.47;;
16119;SDS011;12670;53.502;10.252;2022-09-29T15:41:54;12.00;;;8.77;;
16119;SDS011;12670;53.502;10.252;2022-09-29T15:45:07;12.77;;;9.57;;
16119;SDS011;12670;53.502;10.252;2022-09-29T15:48:16;17.37;;;9.73;;
16119;SDS011;12670;53.502;10.252;2022-09-29T15:51:18;11.57;;;8.47;;
16119;SDS011;12670;53.502;10.252;2022-09-29T15:54:21;12.83;;;9.17;;
16119;SDS011;12670;53.502;10.252;2022-09-29T15:57:27;13.00;;;9.27;;
16119;SDS011;12670;53.502;10.252;2022-09-29T16:00:44;14.77;;;9.90;;
16119;SDS011;12670;53.502;10.252;2022-09-29T16:03:48;13.07;;;9.17;;
16119;SDS011;12670;53.502;10.252;2022-09-29T16:06:57;12.27;;;8.73;;
16119;SDS011;12670;53.502;10.252;2022-09-29T16:10:02;11.00;;;8.70;;
16119;SDS011;12670;53.502;10.252;2022-09-29T16:13:14;12.40;;;8.30;;
16119;SDS011;12670;53.502;10.252;2022-09-29T16:16:25;11.73;;;7.83;;
16119;SDS011;12670;53.502;10.252;2022-09-29T16:19:31;19.03;;;11.50;;
16119;SDS011;12670;53.502;10.252;2022-09-29T16:22:34;20.83;;;13.20;;
16119;SDS011;12670;53.502;10.252;2022-09-29T16:25:36;11.87;;;8.87;;
16119;SDS011;12670;53.502;10.252;2022-09-29T16:28:57;13.87;;;9.17;;
16119;SDS011;12670;53.502;10.252;2022-09-29T16:35:47;14.97;;;9.43;;
16119;SDS011;12670;53.502;10.252;2022-09-29T16:38:59;13.13;;;9.37;;
16119;SDS011;12670;53.502;10.252;2022-09-29T16:42:03;14.23;;;9.33;;
16119;SDS011;12670;53.502;10.252;2022-09-29T16:45:13;13.03;;;9.33;;
16119;SDS011;12670;53.502;10.252;2022-09-29T16:48:17;12.77;;;9.23;;
16119;SDS011;12670;53.502;10.252;2022-09-29T16:51:21;15.47;;;9.10;;
16119;SDS011;12670;53.502;10.252;2022-09-29T16:54:39;12.10;;;8.33;;
16119;SDS011;12670;53.502;10.252;2022-09-29T16:57:48;13.03;;;8.43;;
16119;SDS011;12670;53.502;10.252;2022-09-29T17:00:54;11.63;;;8.37;;
16119;SDS011;12670;53.502;10.252;2022-09-29T17:03:57;13.53;;;8.17;;
16119;SDS011;12670;53.502;10.252;2022-09-29T17:07:00;13.87;;;9.57;;
16119;SDS011;12670;53.502;10.252;2022-09-29T17:10:03;12.27;;;8.47;;
16119;SDS011;12670;53.502;10.252;2022-09-29T17:13:08;12.93;;;9.13;;
16119;SDS011;12670;53.502;10.252;2022-09-29T17:16:14;22.63;;;11.60;;
16119;SDS011;12670;53.502;10.252;2022-09-29T17:19:21;15.83;;;11.70;;
16119;SDS011;12670;53.502;10.252;2022-09-29T17:22:28;18.63;;;12.83;;
16119;SDS011;12670;53.502;10.252;2022-09-29T17:25:32;20.60;;;11.27;;
16119;SDS011;12670;53.502;10.252;2022-09-29T17:28:34;16.00;;;9.97;;
16119;SDS011;12670;53.502;10.252;2022-09-29T17:31:38;16.73;;;9.93;;
16119;SDS011;12670;53.502;10.252;2022-09-29T17:34:40;15.47;;;9.30;;
16119;SDS011;12670;53.502;10.252;2022-09-29T17:37:43;15.10;;;9.93;;
16119;SDS011;12670;53.502;10.252;2022-09-29T17:40:48;16.03;;;9.77;;
16119;SDS011;12670;53.502;10.252;2022-09-29T17:43:53;15.53;;;11.00;;
16119;SDS011;12670;53.502;10.252;2022-09-29T17:46:57;17.93;;;10.83;;
16119;SDS011;12670;53.502;10.252;2022-09-29T17:50:21;17.07;;;10.87;;
16119;SDS011;12670;53.502;10.252;2022-09-29T17:53:26;20.00;;;11.43;;
16119;SDS011;12670;53.502;10.252;2022-09-29T17:56:28;14.90;;;10.70;;
16119;SDS011;12670;53.502;10.252;2022-09-29T17:59:37;16.03;;;10.40;;
16119;SDS011;12670;53.502;10.252;2022-09-29T18:02:41;16.93;;;10.57;;
16119;SDS011;12670;53.502;10.252;2022-09-29T18:05:45;17.20;;;10.93;;
16119;SDS011;12670;53.502;10.252;2022-09-29T18:08:49;17.93;;;11.40;;
16119;SDS011;12670;53.502;10.252;2022-09-29T18:11:54;18.47;;;11.47;;
16119;SDS011;12670;53.502;10.252;2022-09-29T18:14:58;17.87;;;11.70;;
16119;SDS011;12670;53.502;10.252;2022-09-29T18:18:03;21.53;;;13.27;;
16119;SDS011;12670;53.502;10.252;2022-09-29T18:21:07;19.87;;;13.37;;
16119;SDS011;12670;53.502;10.252;2022-09-29T18:24:10;20.20;;;13.63;;
16119;SDS011;12670;53.502;10.252;2022-09-29T18:27:13;24.43;;;14.67;;
16119;SDS011;12670;53.502;10.252;2022-09-29T18:30:17;23.27;;;14.90;;
16119;SDS011;12670;53.502;10.252;2022-09-29T18:33:22;21.17;;;14.77;;